Time;durP1;ratioP1;P1;durP2;ratioP2;P2;SDS_P1;SDS_P2;PMS_P1;PMS_P2;Temp;Humidity;BMP_temperature;BMP_pressure;BME280_temperature;BME280_humidity;BME280_pressure;Samples;Min_cycle;Max_cycle;Signal;HPM_P1;HPM_P2
2021/07/24 00:01:29;;;;;;;21.45;18.48;;;;;;;16.96;100.00;100700.00;3545100;40;20491;-43
2021/07/24 00:03:57;;;;;;;21.05;18.80;;;;;;;16.92;100.00;100702.59;3545028;40;20136;-44
2021/07/24 00:06:43;;;;;;;21.35;18.50;;;;;;;17.10;100.00;100701.69;3545037;40;20226;-42
2021/07/24 00:09:10;;;;;;;20.13;17.25;;;;;;;17.02;100.00;100693.94;3548407;40;20374;-43
2021/07/24 00:11:37;;;;;;;22.35;18.85;;;;;;;16.79;100.00;100692.22;3544880;40;20083;-43
2021/07/24 00:14:04;;;;;;;24.77;18.98;;;;;;;16.74;100.00;100688.78;3545263;40;20046;-45
2021/07/24 00:16:32;;;;;;;23.13;19.20;;;;;;;16.70;100.00;100680.97;3544880;40;20065;-45
2021/07/24 00:18:59;;;;;;;24.60;18.98;;;;;;;16.66;100.00;100682.69;3545354;40;20514;-43
2021/07/24 00:21:26;;;;;;;26.35;20.88;;;;;;;16.62;100.00;100686.13;3545048;40;20548;-43
2021/07/24 00:23:53;;;;;;;23.80;19.35;;;;;;;16.68;100.00;100680.97;3545354;40;20086;-45
2021/07/24 00:26:20;;;;;;;23.33;20.50;;;;;;;16.60;100.00;100671.50;3545124;40;20390;-43
2021/07/24 00:28:47;;;;;;;24.05;20.48;;;;;;;16.61;100.00;100678.38;3545046;40;20090;-43
2021/07/24 00:31:23;;;;;;;24.15;20.80;;;;;;;16.52;100.00;100674.94;3550073;40;20090;-45
2021/07/24 00:33:58;;;;;;;22.58;20.05;;;;;;;16.51;100.00;100678.38;3553807;40;20054;-45
2021/07/24 00:36:25;;;;;;;24.27;20.52;;;;;;;16.48;100.00;100673.19;3547685;40;20369;-45
2021/07/24 00:38:52;;;;;;;22.58;19.67;;;;;;;16.70;100.00;100678.41;3545173;40;20050;-45
2021/07/24 00:41:51;;;;;;;23.70;19.42;;;;;;;16.63;100.00;100674.94;3544945;40;20085;-43
2021/07/24 00:44:23;;;;;;;23.52;19.85;;;;;;;16.53;100.00;100674.06;3550193;40;20073;-44
2021/07/24 00:46:51;;;;;;;22.52;18.67;;;;;;;16.45;100.00;100680.94;3553330;40;20042;-44
2021/07/24 00:49:21;;;;;;;23.13;18.92;;;;;;;16.43;100.00;100674.91;3552950;40;20056;-44
2021/07/24 00:51:49;;;;;;;25.30;20.10;;;;;;;16.40;100.00;100674.03;3553354;40;20360;-43
2021/07/24 00:54:16;;;;;;;24.23;19.40;;;;;;;16.30;100.00;100670.59;3544500;40;20058;-43
2021/07/24 00:56:43;;;;;;;22.60;19.05;;;;;;;16.30;100.00;100665.41;3544441;40;20445;-46
2021/07/24 00:59:10;;;;;;;22.77;19.55;;;;;;;16.19;100.00;100669.72;3553705;40;20327;-43
2021/07/24 01:01:41;;;;;;;23.80;21.20;;;;;;;16.11;100.00;100664.50;3553336;40;20042;-43
2021/07/24 01:04:09;;;;;;;27.55;21.90;;;;;;;16.06;100.00;100661.06;3553221;40;20053;-43
2021/07/24 01:06:37;;;;;;;26.00;22.02;;;;;;;16.03;100.00;100661.91;3553261;40;20054;-46
2021/07/24 01:09:04;;;;;;;24.60;20.95;;;;;;;16.01;100.00;100661.03;3553404;40;20097;-44
2021/07/24 01:11:31;;;;;;;28.88;21.42;;;;;;;15.92;100.00;100658.44;3553288;40;20117;-43
2021/07/24 01:13:58;;;;;;;26.70;20.95;;;;;;;15.96;100.00;100660.19;3553262;40;20074;-44
2021/07/24 01:16:25;;;;;;;25.17;21.67;;;;;;;15.88;100.00;100653.25;3553195;40;20093;-45
2021/07/24 01:18:52;;;;;;;27.17;21.30;;;;;;;15.94;100.00;100656.69;3553376;40;20459;-43
2021/07/24 01:21:25;;;;;;;23.80;20.50;;;;;;;16.12;100.00;100660.22;3563400;40;20052;-43
2021/07/24 01:23:52;;;;;;;27.77;21.55;;;;;;;15.98;100.00;100657.59;3563185;40;20089;-41
2021/07/24 01:26:27;;;;;;;25.17;20.90;;;;;;;15.93;100.00;100651.53;3563203;40;20139;-42
2021/07/24 01:28:54;;;;;;;25.08;21.95;;;;;;;15.87;100.00;100654.97;3562832;40;20056;-41
2021/07/24 01:31:21;;;;;;;25.48;21.73;;;;;;;15.82;100.00;100653.25;3563528;40;20081;-42
2021/07/24 01:33:49;;;;;;;24.17;21.00;;;;;;;15.84;100.00;100654.97;3562919;40;20515;-42
2021/07/24 01:36:16;;;;;;;29.48;22.02;;;;;;;15.74;100.00;100656.66;3567316;40;20466;-42
2021/07/24 01:38:44;;;;;;;25.20;21.02;;;;;;;15.80;100.00;100658.38;3568905;40;20125;-47
2021/07/24 01:41:13;;;;;;;24.55;21.23;;;;;;;15.77;100.00;100651.50;3556969;40;20038;-43
2021/07/24 01:43:40;;;;;;;23.70;21.13;;;;;;;15.87;100.00;100647.22;3560712;40;20072;-41
2021/07/24 01:46:07;;;;;;;24.77;21.08;;;;;;;16.00;100.00;100653.31;3562537;40;20072;-41
2021/07/24 01:48:42;;;;;;;26.20;22.65;;;;;;;15.71;100.00;100655.75;3562944;40;20057;-42
2021/07/24 01:54:01;;;;;;;26.47;22.63;;;;;;;15.64;100.00;100648.88;3563046;40;20447;-42
2021/07/24 01:56:33;;;;;;;27.20;22.08;;;;;;;15.63;100.00;100650.56;3562994;40;20120;-41
2021/07/24 01:59:00;;;;;;;30.77;23.23;;;;;;;15.57;100.00;100647.06;3562932;40;20060;-43
2021/07/24 02:01:30;;;;;;;28.17;22.80;;;;;;;15.49;100.00;100647.06;3558868;40;20321;-43
2021/07/24 02:04:07;;;;;;;30.00;22.90;;;;;;;15.58;100.00;100648.81;3556085;40;20116;-43
2021/07/24 02:06:34;;;;;;;26.95;23.40;;;;;;;15.49;100.00;100645.34;3555538;40;20094;-41
2021/07/24 02:09:01;;;;;;;28.88;23.58;;;;;;;15.47;100.00;100646.16;3555456;40;20050;-44
2021/07/24 02:11:28;;;;;;;32.28;24.45;;;;;;;15.35;100.00;100644.41;3555929;40;20356;-41
2021/07/24 02:13:55;;;;;;;32.33;25.73;;;;;;;15.26;100.00;100640.03;3559694;40;20517;-42
2021/07/24 02:16:22;;;;;;;32.70;24.77;;;;;;;15.26;100.00;100639.19;3564726;40;20085;-41
2021/07/24 02:18:49;;;;;;;33.28;25.30;;;;;;;15.18;100.00;100627.94;3564323;40;20053;-41
2021/07/24 02:21:17;;;;;;;30.60;26.23;;;;;;;15.16;100.00;100635.69;3564534;40;20085;-41
2021/07/24 02:23:44;;;;;;;32.15;24.00;;;;;;;15.22;100.00;100629.69;3564107;40;20065;-43
2021/07/24 02:26:12;;;;;;;27.23;23.88;;;;;;;15.35;100.00;100639.25;3563890;40;20081;-43
2021/07/24 02:28:39;;;;;;;30.35;23.60;;;;;;;15.35;100.00;100644.41;3563567;40;20053;-40
2021/07/24 02:31:06;;;;;;;27.23;24.25;;;;;;;15.24;100.00;100641.75;3563444;40;20416;-41
2021/07/24 02:33:33;;;;;;;31.90;24.30;;;;;;;15.19;100.00;100643.44;3555493;40;20063;-43
2021/07/24 02:36:00;;;;;;;28.50;23.27;;;;;;;15.17;100.00;100640.00;3555347;40;20058;-41
2021/07/24 02:38:28;;;;;;;32.35;24.90;;;;;;;15.10;100.00;100645.09;3555619;40;20769;-41
2021/07/24 02:40:55;;;;;;;29.10;24.75;;;;;;;15.03;100.00;100639.91;3555686;40;20326;-41
2021/07/24 02:43:22;;;;;;;29.67;25.10;;;;;;;15.05;100.00;100636.47;3555389;40;20054;-42
2021/07/24 02:45:49;;;;;;;29.48;25.13;;;;;;;15.02;100.00;100637.28;3555580;40;20102;-41
2021/07/24 02:48:16;;;;;;;27.33;23.88;;;;;;;15.09;100.00;100639.06;3555349;40;20050;-41
2021/07/24 02:50:43;;;;;;;29.40;25.48;;;;;;;15.05;100.00;100637.31;3555303;40;20098;-41
2021/07/24 02:53:10;;;;;;;31.10;25.45;;;;;;;14.99;100.00;100634.72;3564203;40;20082;-42
2021/07/24 02:55:37;;;;;;;33.40;26.17;;;;;;;14.92;100.00;100635.50;3563983;40;20045;-41
2021/07/24 02:58:04;;;;;;;29.42;24.42;;;;;;;14.94;100.00;100632.09;3563895;40;20044;-42
2021/07/24 03:00:31;;;;;;;34.13;25.83;;;;;;;15.00;100.00;100628.69;3564325;40;20089;-42
2021/07/24 03:02:58;;;;;;;33.50;26.33;;;;;;;15.01;100.00;100627.84;3563700;40;20052;-44
2021/07/24 03:05:25;;;;;;;36.47;27.75;;;;;;;14.96;100.00;100630.38;3564121;40;20395;-41
2021/07/24 03:07:52;;;;;;;34.55;26.33;;;;;;;14.91;100.00;100624.34;3563596;40;20053;-41
2021/07/24 03:10:19;;;;;;;33.60;26.33;;;;;;;14.90;100.00;100626.91;3564100;40;20080;-46
2021/07/24 03:12:46;;;;;;;36.20;26.02;;;;;;;14.84;100.00;100622.59;3563246;40;20074;-42
2021/07/24 03:15:14;;;;;;;37.08;26.30;;;;;;;14.82;100.00;100613.97;3555017;40;20056;-43
2021/07/24 03:17:41;;;;;;;34.17;25.63;;;;;;;14.82;100.00;100610.53;3554844;40;20057;-42
2021/07/24 03:20:08;;;;;;;34.65;26.35;;;;;;;14.82;100.00;100607.94;3555426;40;20090;-42
2021/07/24 03:22:35;;;;;;;33.90;27.08;;;;;;;14.93;100.00;100611.44;3555189;40;20060;-41
2021/07/24 03:25:03;;;;;;;37.75;26.42;;;;;;;14.92;100.00;100609.72;3555352;40;20082;-41
2021/07/24 03:27:30;;;;;;;36.50;26.13;;;;;;;14.90;100.00;100598.56;3555165;40;20083;-42
2021/07/24 03:29:57;;;;;;;29.60;24.55;;;;;;;14.93;100.00;100595.97;3555679;40;20089;-42
2021/07/24 03:32:24;;;;;;;36.28;27.85;;;;;;;14.86;100.00;100592.50;3555265;40;20444;-42
2021/07/24 03:34:51;;;;;;;32.35;25.80;;;;;;;14.85;100.00;100597.66;3555246;40;20431;-46
2021/07/24 03:37:21;;;;;;;37.28;26.70;;;;;;;14.82;100.00;100590.75;3554396;40;20339;-42
2021/07/24 03:39:49;;;;;;;33.33;25.88;;;;;;;14.86;100.00;100594.22;3555284;40;20223;-42
2021/07/24 03:42:16;;;;;;;31.80;25.23;;;;;;;14.87;100.00;100591.66;3554756;40;20030;-42
2021/07/24 03:44:43;;;;;;;35.17;26.60;;;;;;;14.87;100.00;100586.50;3554629;40;20300;-42
2021/07/24 03:47:10;;;;;;;34.20;25.67;;;;;;;14.85;100.00;100584.78;3563117;40;20053;-43
2021/07/24 03:49:37;;;;;;;30.38;25.60;;;;;;;14.85;100.00;100583.06;3563758;40;20113;-42
2021/07/24 03:52:04;;;;;;;33.88;25.00;;;;;;;14.90;100.00;100586.53;3563043;40;20073;-42
2021/07/24 03:54:31;;;;;;;34.22;25.00;;;;;;;14.97;100.00;100583.09;3563732;40;20085;-42
2021/07/24 03:56:58;;;;;;;34.15;24.00;;;;;;;15.01;100.00;100581.41;3563420;40;20061;-43
2021/07/24 03:59:26;;;;;;;29.25;24.13;;;;;;;15.10;100.00;100583.19;3563762;40;20047;-42
2021/07/24 04:01:55;;;;;;;31.13;24.00;;;;;;;15.21;100.00;100587.56;3563192;40;20050;-45
2021/07/24 04:04:22;;;;;;;30.52;23.98;;;;;;;15.19;100.00;100589.25;3563589;40;20049;-47
2021/07/24 04:06:52;;;;;;;31.38;24.10;;;;;;;15.27;100.00;100599.63;3562938;40;20097;-42
2021/07/24 04:09:20;;;;;;;32.60;23.65;;;;;;;15.27;100.00;100592.75;3563558;40;20499;-42
2021/07/24 04:11:48;;;;;;;34.72;23.65;;;;;;;15.39;100.00;100598.81;3563204;40;20061;-42
2021/07/24 04:14:15;;;;;;;36.13;23.42;;;;;;;15.39;100.00;100599.69;3559988;40;20048;-42
2021/07/24 04:16:42;;;;;;;27.75;23.52;;;;;;;15.46;100.00;100598.84;3563381;40;20074;-44
2021/07/24 04:19:10;;;;;;;29.70;23.48;;;;;;;15.58;100.00;100590.31;3563098;40;20077;-45
2021/07/24 04:21:36;;;;;;;32.83;23.70;;;;;;;15.72;100.00;100590.38;3563437;40;20089;-42
2021/07/24 04:24:04;;;;;;;28.85;23.80;;;;;;;15.72;100.00;100592.97;3562999;40;20080;-43
2021/07/24 04:26:32;;;;;;;28.50;22.58;;;;;;;15.76;100.00;100599.84;3563433;40;20049;-42
2021/07/24 04:28:59;;;;;;;31.52;21.73;;;;;;;15.79;100.00;100599.84;3563363;40;20398;-43
2021/07/24 04:31:26;;;;;;;30.65;22.20;;;;;;;15.88;100.00;100597.31;3566175;40;20092;-46
2021/07/24 04:33:53;;;;;;;32.15;22.27;;;;;;;15.96;100.00;100595.59;3569437;40;20055;-47
2021/07/24 04:36:20;;;;;;;30.05;23.05;;;;;;;15.99;100.00;100594.72;3567334;40;20331;-42
2021/07/24 04:38:47;;;;;;;27.58;21.58;;;;;;;16.13;100.00;100600.81;3563308;40;20049;-43
2021/07/24 04:41:18;;;;;;;31.15;22.42;;;;;;;16.30;100.00;100590.47;3560268;40;20104;-43
2021/07/24 04:43:45;;;;;;;27.02;21.67;;;;;;;16.38;100.00;100596.53;3563093;40;20063;-43
2021/07/24 04:46:13;;;;;;;29.58;21.95;;;;;;;16.36;100.00;100592.19;3561832;40;20073;-42
2021/07/24 04:48:40;;;;;;;26.13;20.88;;;;;;;16.40;100.00;100596.50;3554557;40;20057;-42
2021/07/24 04:51:07;;;;;;;26.63;20.50;;;;;;;16.48;100.00;100599.97;3554554;40;20104;-42
2021/07/24 04:53:36;;;;;;;31.08;21.45;;;;;;;16.57;100.00;100599.09;3554851;40;20049;-42
2021/07/24 04:56:03;;;;;;;30.08;21.05;;;;;;;16.63;100.00;100599.09;3554809;40;20097;-42
2021/07/24 04:58:31;;;;;;;25.35;20.17;;;;;;;16.74;100.00;100607.75;3554613;40;20323;-42
2021/07/24 05:00:58;;;;;;;27.42;20.27;;;;;;;16.83;100.00;100606.88;3555221;40;20097;-42
2021/07/24 05:03:25;;;;;;;28.65;20.58;;;;;;;16.88;100.00;100610.31;3554676;40;20085;-42
2021/07/24 05:05:56;;;;;;;27.42;21.10;;;;;;;16.95;100.00;100615.47;3554629;40;20062;-42
2021/07/24 05:08:23;;;;;;;26.10;20.33;;;;;;;17.20;100.00;100612.84;3554145;40;20053;-42
2021/07/24 05:10:50;;;;;;;30.42;20.15;;;;;;;17.25;100.00;100613.69;3554525;40;20431;-43
2021/07/24 05:13:17;;;;;;;26.38;19.70;;;;;;;17.39;100.00;100621.41;3554246;40;20279;-42
2021/07/24 05:15:44;;;;;;;28.20;19.15;;;;;;;17.42;100.00;100622.25;3557861;40;20052;-43
2021/07/24 05:18:12;;;;;;;23.08;19.27;;;;;;;17.51;100.00;100617.03;3554588;40;20573;-42
2021/07/24 05:20:39;;;;;;;27.40;21.45;;;;;;;17.63;99.99;100623.03;3554264;40;20081;-41
2021/07/24 05:23:06;;;;;;;28.48;20.02;;;;;;;17.69;100.00;100615.22;3554471;40;20049;-42
2021/07/24 05:25:34;;;;;;;23.85;18.83;;;;;;;18.10;98.39;100616.78;3554092;40;20044;-43
2021/07/24 05:28:01;;;;;;;27.15;20.00;;;;;;;18.16;97.22;100611.53;3554429;40;20042;-43
2021/07/24 05:30:28;;;;;;;28.83;20.52;;;;;;;18.33;97.61;100614.88;3554936;40;20102;-43
2021/07/24 05:32:55;;;;;;;25.30;18.67;;;;;;;18.38;96.02;100614.84;3554937;40;20060;-43
2021/07/24 05:35:22;;;;;;;27.35;18.50;;;;;;;18.29;96.47;100616.63;3555021;40;20435;-44
2021/07/24 05:37:49;;;;;;;23.55;18.63;;;;;;;18.58;94.71;100615.56;3556119;40;20097;-44
2021/07/24 05:40:16;;;;;;;23.42;18.50;;;;;;;18.62;94.59;100637.13;3555997;40;20061;-41
2021/07/24 05:42:43;;;;;;;23.73;18.60;;;;;;;18.78;92.80;100626.66;3555792;40;20423;-42
2021/07/24 05:45:11;;;;;;;23.25;17.55;;;;;;;18.94;89.99;100626.50;3555796;40;20472;-42
2021/07/24 05:47:38;;;;;;;23.13;17.52;;;;;;;18.89;91.77;100618.75;3555456;40;20094;-41
2021/07/24 05:50:06;;;;;;;20.08;17.15;;;;;;;19.08;89.67;100625.47;3556093;40;20082;-41
2021/07/24 05:52:33;;;;;;;20.85;17.35;;;;;;;19.17;91.37;100623.66;3559081;40;20081;-41
2021/07/24 05:55:00;;;;;;;22.63;18.13;;;;;;;19.27;90.74;100633.97;3558439;40;20097;-41
2021/07/24 05:57:27;;;;;;;21.58;17.27;;;;;;;19.56;88.74;100623.22;3560253;40;20319;-41
2021/07/24 05:59:56;;;;;;;19.52;15.85;;;;;;;19.97;84.53;100628.78;3558552;40;20102;-43
2021/07/24 06:02:23;;;;;;;20.27;17.00;;;;;;;19.84;86.80;100623.75;3558729;40;20278;-42
2021/07/24 06:04:51;;;;;;;25.92;17.60;;;;;;;19.99;86.48;100622.69;3559027;40;20070;-44
2021/07/24 06:07:17;;;;;;;22.65;17.20;;;;;;;20.08;84.14;100608.69;3558769;40;20048;-43
2021/07/24 06:09:46;;;;;;;19.23;16.40;;;;;;;20.29;85.18;100613.56;3559673;40;20350;-42
2021/07/24 06:12:13;;;;;;;21.25;16.65;;;;;;;20.63;88.03;100613.06;3559090;40;20330;-42
2021/07/24 06:14:42;;;;;;;21.17;16.27;;;;;;;20.83;83.51;100620.50;3558662;40;20101;-43
2021/07/24 06:17:11;;;;;;;25.02;16.67;;;;;;;21.18;79.76;100632.03;3564072;40;20442;-42
2021/07/24 06:19:38;;;;;;;23.38;16.08;;;;;;;21.02;76.20;100637.50;3564253;40;20084;-42
2021/07/24 06:22:06;;;;;;;20.55;16.02;;;;;;;21.18;78.86;100630.28;3563903;40;20116;-42
2021/07/24 06:24:33;;;;;;;19.55;15.13;;;;;;;21.19;75.66;100625.94;3564323;40;20462;-42
2021/07/24 06:27:00;;;;;;;21.00;15.07;;;;;;;21.52;74.83;100614.88;3564102;40;20085;-42
2021/07/24 06:29:27;;;;;;;20.77;15.02;;;;;;;21.53;74.35;100610.50;3564055;40;20129;-42
2021/07/24 06:31:54;;;;;;;20.52;16.23;;;;;;;21.63;76.26;100613.78;3563171;40;20213;-42
2021/07/24 06:34:21;;;;;;;20.20;15.80;;;;;;;21.86;75.29;100614.13;3556363;40;20058;-42
2021/07/24 06:36:48;;;;;;;19.88;15.52;;;;;;;22.11;72.66;100615.34;3554705;40;20160;-42
2021/07/24 06:39:15;;;;;;;21.25;15.90;;;;;;;22.20;71.12;100611.66;3554515;40;20070;-42
2021/07/24 06:41:42;;;;;;;17.13;14.32;;;;;;;22.36;73.14;100625.19;3554759;40;20132;-42
2021/07/24 06:44:09;;;;;;;21.40;15.93;;;;;;;22.57;73.20;100610.78;3563078;40;20089;-44
2021/07/24 06:46:36;;;;;;;18.05;15.98;;;;;;;22.63;71.52;100611.47;3563096;40;20082;-42
2021/07/24 06:49:03;;;;;;;21.08;15.35;;;;;;;22.79;71.40;100605.88;3563115;40;20119;-43
2021/07/24 06:51:30;;;;;;;22.42;16.27;;;;;;;23.01;72.91;100603.56;3563416;40;20041;-42
2021/07/24 06:53:58;;;;;;;17.05;14.75;;;;;;;23.15;69.58;100601.44;3559156;40;20140;-43
2021/07/24 06:56:25;;;;;;;20.38;15.88;;;;;;;23.13;69.72;100609.31;3556405;40;20049;-42
2021/07/24 06:58:52;;;;;;;17.73;15.40;;;;;;;23.38;68.41;100606.84;3563260;40;20077;-42
2021/07/24 07:01:21;;;;;;;18.20;14.68;;;;;;;23.57;67.70;100601.97;3558007;40;20050;-43
2021/07/24 07:03:49;;;;;;;19.35;15.02;;;;;;;23.58;66.17;100598.47;3554950;40;20231;-42
2021/07/24 07:06:17;;;;;;;18.75;14.27;;;;;;;23.95;65.90;100596.53;3555101;40;20034;-43
2021/07/24 07:08:47;;;;;;;18.20;16.13;;;;;;;23.79;66.61;100596.97;3559856;40;20049;-43
2021/07/24 07:11:14;;;;;;;18.75;15.32;;;;;;;24.17;66.59;100599.28;3554647;40;20065;-43
2021/07/24 07:13:41;;;;;;;23.05;16.42;;;;;;;24.29;68.42;100593.69;3554162;40;20056;-43
2021/07/24 07:16:09;;;;;;;18.88;15.95;;;;;;;24.52;67.67;100593.81;3558492;40;20076;-44
2021/07/24 07:18:37;;;;;;;19.25;16.33;;;;;;;24.73;63.72;100586.09;3554800;40;20396;-42
2021/07/24 07:21:08;;;;;;;18.20;15.57;;;;;;;24.83;62.67;100588.38;3555053;40;20062;-43
2021/07/24 07:23:35;;;;;;;21.08;15.40;;;;;;;25.10;64.29;100581.34;3555066;40;20086;-43
2021/07/24 07:26:02;;;;;;;19.83;15.98;;;;;;;25.38;61.64;100578.56;3556005;40;20327;-43
2021/07/24 07:28:29;;;;;;;21.42;16.33;;;;;;;25.36;59.87;100580.34;3560461;40;20131;-43
2021/07/24 07:30:56;;;;;;;20.63;15.23;;;;;;;25.52;60.13;100580.66;3557223;40;20129;-44
2021/07/24 07:33:23;;;;;;;22.73;15.55;;;;;;;25.85;60.05;100572.41;3554006;40;20072;-43
2021/07/24 07:35:50;;;;;;;19.88;15.85;;;;;;;25.84;56.83;100579.44;3561976;40;20081;-43
2021/07/24 07:38:17;;;;;;;19.10;15.30;;;;;;;26.19;57.18;100576.31;3562022;40;20086;-43
2021/07/24 07:40:45;;;;;;;28.13;17.08;;;;;;;26.25;58.21;100576.03;3554541;40;20406;-44
2021/07/24 07:43:12;;;;;;;20.52;16.40;;;;;;;26.28;57.56;100568.06;3557807;40;20082;-48
2021/07/24 07:45:40;;;;;;;20.13;16.08;;;;;;;26.35;56.95;100572.16;3553675;40;20101;-42
2021/07/24 07:48:08;;;;;;;18.35;15.85;;;;;;;26.26;55.80;100572.53;3562462;40;20057;-44
2021/07/24 07:50:36;;;;;;;22.30;15.20;;;;;;;25.97;55.91;100566.66;3563568;40;20053;-43
2021/07/24 07:53:04;;;;;;;20.15;15.82;;;;;;;25.56;54.43;100563.91;3563725;40;20053;-45
2021/07/24 07:55:31;;;;;;;20.02;15.38;;;;;;;25.53;56.49;100564.00;3559449;40;20090;-45
2021/07/24 07:57:58;;;;;;;19.88;16.10;;;;;;;25.58;56.69;100569.91;3554763;40;20089;-46
2021/07/24 08:00:26;;;;;;;18.98;15.05;;;;;;;25.47;56.30;100566.88;3563788;40;20339;-45
2021/07/24 08:02:54;;;;;;;17.95;15.70;;;;;;;25.80;57.14;100562.09;3563797;40;20556;-46
2021/07/24 08:05:22;;;;;;;18.48;14.93;;;;;;;25.99;55.66;100558.75;3563563;40;20073;-43
2021/07/24 08:07:49;;;;;;;17.15;14.75;;;;;;;26.13;54.22;100562.53;3563359;40;20049;-45
2021/07/24 08:10:16;;;;;;;17.52;15.25;;;;;;;26.09;55.66;100560.09;3558164;40;20071;-44
2021/07/24 08:12:43;;;;;;;20.40;14.98;;;;;;;26.26;56.52;100554.16;3553789;40;20054;-43
2021/07/24 08:15:12;;;;;;;17.75;14.20;;;;;;;26.40;54.86;100557.91;3555980;40;20455;-43
2021/07/24 08:17:40;;;;;;;18.65;14.73;;;;;;;26.37;55.28;100557.16;3556102;40;20061;-44
2021/07/24 08:20:09;;;;;;;19.38;14.20;;;;;;;26.64;53.76;100542.88;3554703;40;20109;-44
2021/07/24 08:22:36;;;;;;;20.08;14.93;;;;;;;26.64;53.92;100549.91;3556407;40;20358;-43
2021/07/24 08:25:05;;;;;;;16.92;14.75;;;;;;;26.86;51.57;100555.94;3555396;40;20074;-43
2021/07/24 08:27:32;;;;;;;17.10;15.30;;;;;;;27.58;47.97;100549.19;3554592;40;20553;-43
2021/07/24 08:29:59;;;;;;;19.45;14.93;;;;;;;27.71;46.02;100539.81;3554931;40;20082;-43
2021/07/24 08:32:26;;;;;;;16.92;13.90;;;;;;;27.30;47.52;100545.22;3554495;40;20327;-43
2021/07/24 08:34:53;;;;;;;16.00;14.18;;;;;;;27.39;49.25;100541.31;3558280;40;20061;-43
2021/07/24 08:37:20;;;;;;;17.80;15.13;;;;;;;27.36;48.42;100534.44;3554456;40;20077;-43
2021/07/24 08:39:47;;;;;;;20.60;15.15;;;;;;;27.41;48.19;100535.06;3554690;40;20097;-43
2021/07/24 08:42:49;;;;;;;15.90;14.13;;;;;;;27.48;46.27;100534.78;3554564;40;20358;-43
2021/07/24 08:45:19;;;;;;;16.27;14.40;;;;;;;27.20;47.81;100532.59;3518348;40;20039;-45
2021/07/24 08:47:46;;;;;;;17.55;13.73;;;;;;;27.11;46.06;100523.34;3551774;40;20050;-50
2021/07/24 08:50:14;;;;;;;19.90;14.35;;;;;;;27.32;46.38;100540.75;3553869;40;20091;-43
2021/07/24 08:52:42;;;;;;;21.45;14.93;;;;;;;27.92;46.29;100535.31;3553986;40;20128;-44
2021/07/24 08:55:10;;;;;;;20.23;14.80;;;;;;;27.98;45.72;100542.91;3554632;40;20046;-44
2021/07/24 08:57:41;;;;;;;19.27;13.75;;;;;;;27.67;41.72;100533.81;3556221;40;20354;-44
2021/07/24 09:00:13;;;;;;;17.63;14.15;;;;;;;27.72;44.45;100532.78;3554620;40;20089;-44
2021/07/24 09:02:43;;;;;;;16.15;13.90;;;;;;;28.13;43.79;100528.13;3558045;40;20061;-44
2021/07/24 09:05:12;;;;;;;16.55;13.90;;;;;;;27.79;42.26;100526.31;3563134;40;20051;-43
2021/07/24 09:07:50;;;;;;;17.63;14.07;;;;;;;27.54;42.96;100535.31;3556642;40;20054;-43
2021/07/24 09:10:19;;;;;;;18.42;14.23;;;;;;;27.62;42.52;100522.69;3553774;40;20419;-45
2021/07/24 09:12:53;;;;;;;14.00;12.60;;;;;;;27.84;43.00;100521.69;3554294;40;20064;-44
2021/07/24 09:15:21;;;;;;;14.43;12.93;;;;;;;27.70;43.30;100524.09;3554561;40;20033;-45
2021/07/24 09:17:48;;;;;;;17.30;13.32;;;;;;;28.07;45.20;100524.03;3554659;40;20053;-44
2021/07/24 09:20:20;;;;;;;15.90;14.05;;;;;;;28.40;44.80;100513.59;3557933;40;20053;-45
2021/07/24 09:22:49;;;;;;;15.73;13.00;;;;;;;27.95;43.25;100514.09;3554487;40;20081;-43
2021/07/24 09:25:20;;;;;;;18.83;14.48;;;;;;;27.99;43.07;100509.53;3554545;40;20336;-43
2021/07/24 09:27:51;;;;;;;16.33;13.43;;;;;;;28.42;42.05;100506.47;3554688;40;20090;-43
2021/07/24 09:30:27;;;;;;;15.50;12.45;;;;;;;28.54;39.85;100510.25;3554208;40;20054;-43
2021/07/24 09:33:02;;;;;;;16.60;13.02;;;;;;;28.37;39.60;100499.72;3554274;40;20096;-44
2021/07/24 09:35:53;;;;;;;14.50;13.02;;;;;;;28.67;40.41;100497.28;3559357;40;20125;-43
2021/07/24 09:38:34;;;;;;;16.00;12.18;;;;;;;28.97;38.03;100502.72;3558760;40;20074;-44
2021/07/24 09:41:05;;;;;;;15.10;12.00;;;;;;;28.81;38.69;100501.84;3556636;40;20050;-43
2021/07/24 09:43:34;;;;;;;14.20;12.43;;;;;;;29.33;40.06;100505.16;3558053;40;20082;-43
2021/07/24 09:46:18;;;;;;;15.98;12.77;;;;;;;29.13;38.99;100494.88;3557648;40;20050;-43
2021/07/24 09:48:53;;;;;;;14.80;13.30;;;;;;;29.06;39.13;100493.47;3555810;40;20128;-44
2021/07/24 09:51:34;;;;;;;17.17;13.98;;;;;;;29.50;39.07;100498.09;3558557;40;20078;-43
2021/07/24 09:54:02;;;;;;;14.25;12.68;;;;;;;29.13;39.25;100492.22;3557920;40;20319;-43
2021/07/24 09:56:42;;;;;;;16.08;13.63;;;;;;;29.37;38.63;100492.66;3558000;40;20056;-44
2021/07/24 09:59:28;;;;;;;16.30;13.95;;;;;;;29.10;39.43;100493.22;3555237;40;20082;-44
2021/07/24 10:02:03;;;;;;;15.27;12.95;;;;;;;28.69;39.48;100484.88;3554352;40;20153;-45
2021/07/24 10:04:34;;;;;;;;;;;;;;;29.07;38.93;100484.63;3555208;40;20439;-43
2021/07/24 10:07:23;;;;;;;16.63;13.20;;;;;;;29.78;37.73;100492.97;3557468;40;20275;-44
2021/07/24 10:09:50;;;;;;;15.70;12.43;;;;;;;30.36;36.18;100489.56;3555727;40;20439;-44
2021/07/24 10:12:19;;;;;;;14.00;12.55;;;;;;;31.17;35.38;100496.97;3557874;40;20061;-45
2021/07/24 10:14:48;;;;;;;14.68;13.18;;;;;;;31.75;34.50;100511.75;3554486;40;20054;-44
2021/07/24 10:17:16;;;;;;;19.98;13.73;;;;;;;32.33;33.32;100501.75;3553229;40;20070;-44
2021/07/24 10:19:43;;;;;;;16.48;12.98;;;;;;;33.23;31.45;100505.22;3560967;40;20076;-43
2021/07/24 10:22:11;;;;;;;15.73;12.63;;;;;;;33.92;31.51;100514.28;3555397;40;20044;-44
2021/07/24 10:24:38;;;;;;;15.55;13.63;;;;;;;36.93;25.58;100529.00;3559023;40;20057;-46
2021/07/24 10:27:11;;;;;;;15.73;14.02;;;;;;;35.63;27.35;100516.00;3564421;40;20675;-44
2021/07/24 10:30:03;;;;;;;16.73;15.00;;;;;;;37.03;25.46;100524.56;3555521;40;20467;-44
2021/07/24 10:32:36;;;;;;;14.75;12.90;;;;;;;35.30;27.05;100515.09;3562088;40;20313;-44
2021/07/24 10:35:04;;;;;;;13.82;12.35;;;;;;;35.29;28.60;100515.25;3564087;40;20051;-44
2021/07/24 10:40:20;;;;;;;15.02;13.50;;;;;;;34.06;29.11;100515.94;3564518;40;20055;-51
2021/07/24 10:42:53;;;;;;;15.35;13.70;;;;;;;33.12;30.43;100500.69;3566781;40;20052;-46
2021/07/24 10:45:32;;;;;;;14.23;12.73;;;;;;;35.26;27.67;100512.81;3561598;40;20045;-49
2021/07/24 10:48:17;;;;;;;14.23;12.75;;;;;;;34.64;28.49;100503.53;3565261;40;20061;-46
2021/07/24 10:50:54;;;;;;;13.68;12.07;;;;;;;39.11;23.28;100509.78;3562321;40;20049;-49
2021/07/24 10:53:28;;;;;;;14.60;12.70;;;;;;;37.99;24.42;100511.50;3563396;40;20057;-46
2021/07/24 10:55:56;;;;;;;14.73;13.03;;;;;;;38.37;23.73;100510.63;3565845;40;20065;-48
2021/07/24 10:58:26;;;;;;;14.55;13.05;;;;;;;39.24;23.88;100504.91;3565603;40;20130;-44
2021/07/24 11:00:55;;;;;;;14.02;12.68;;;;;;;37.22;25.12;100487.22;3565537;40;20064;-48
2021/07/24 11:03:46;;;;;;;15.05;13.52;;;;;;;36.71;25.66;100492.66;3563891;40;20339;-46
2021/07/24 11:06:25;;;;;;;15.40;13.00;;;;;;;36.83;25.70;100490.72;3562151;40;20052;-46
2021/07/24 11:09:09;;;;;;;14.32;12.82;;;;;;;40.40;22.40;100495.91;3561776;40;20092;-44
2021/07/24 11:11:47;;;;;;;13.10;11.80;;;;;;;40.33;21.77;100492.16;3564020;40;20401;-45
2021/07/24 11:14:29;;;;;;;15.48;13.95;;;;;;;38.26;23.49;100486.69;3565149;40;20373;-44
2021/07/24 11:17:06;;;;;;;13.40;12.18;;;;;;;40.24;22.34;100493.13;3565677;40;20076;-45
2021/07/24 11:19:40;;;;;;;13.85;12.55;;;;;;;39.92;21.02;100491.00;3565642;40;20057;-44
2021/07/24 11:22:15;;;;;;;14.70;13.18;;;;;;;41.44;20.53;100489.47;3565732;40;20445;-44